Time;durP1;ratioP1;P1;durP2;ratioP2;P2;SDS_P1;SDS_P2;PMS_P1;PMS_P2;Temp;Humidity;BMP_temperature;BMP_pressure;BME280_temperature;BME280_humidity;BME280_pressure;Samples;Min_cycle;Max_cycle;Signal;HPM_P1;HPM_P2
2023/11/29 00:01:40;;;;;;;18.77;15.17;;;;;;;;;;5091643;28;20287;-81
2023/11/29 00:04:07;;;;;;;22.30;15.80;;;;;;;;;;5090921;28;20281;-81
2023/11/29 00:06:34;;;;;;;21.10;16.67;;;;;;;;;;5092056;28;20289;-81
2023/11/29 00:09:02;;;;;;;20.23;15.73;;;;;;;;;;5091487;28;20233;-81
2023/11/29 00:11:29;;;;;;;21.90;16.30;;;;;;;;;;5091713;28;20226;-81
2023/11/29 00:13:56;;;;;;;22.20;16.13;;;;;;;;;;5091424;28;20285;-81
2023/11/29 00:16:25;;;;;;;26.20;20.90;;;;;;;;;;5091561;28;20262;-81
2023/11/29 00:18:52;;;;;;;26.63;19.67;;;;;;;;;;5091443;28;20201;-81
2023/11/29 00:21:19;;;;;;;26.87;18.73;;;;;;;;;;5091555;28;20201;-80
2023/11/29 00:23:47;;;;;;;29.90;23.13;;;;;;;;;;5090945;28;20539;-81
2023/11/29 00:26:14;;;;;;;30.97;24.23;;;;;;;;;;5092057;28;20218;-81
2023/11/29 00:28:41;;;;;;;34.73;24.53;;;;;;;;;;5091590;28;20263;-82
2023/11/29 00:31:08;;;;;;;30.43;24.20;;;;;;;;;;5091329;28;20307;-81
2023/11/29 00:33:37;;;;;;;31.00;24.33;;;;;;;;;;5091280;28;20198;-81
2023/11/29 00:36:05;;;;;;;28.47;23.47;;;;;;;;;;5091191;28;20314;-81
2023/11/29 00:38:32;;;;;;;29.53;23.93;;;;;;;;;;5091454;28;20289;-81
2023/11/29 00:40:59;;;;;;;31.60;23.33;;;;;;;;;;5091499;28;20799;-81
2023/11/29 00:43:27;;;;;;;29.90;22.93;;;;;;;;;;5091353;28;20281;-82
2023/11/29 00:45:54;;;;;;;30.03;23.93;;;;;;;;;;5091130;28;20234;-81
2023/11/29 00:48:21;;;;;;;27.00;23.30;;;;;;;;;;5090933;28;20285;-80
2023/11/29 00:50:49;;;;;;;27.30;22.83;;;;;;;;;;5091202;28;20302;-81
2023/11/29 00:53:17;;;;;;;27.30;22.83;;;;;;;;;;5090779;28;20741;-80
2023/11/29 00:55:44;;;;;;;29.13;23.07;;;;;;;;;;5091278;28;20633;-81
2023/11/29 00:58:11;;;;;;;26.00;22.33;;;;;;;;;;5091310;28;20277;-81
2023/11/29 01:00:38;;;;;;;27.13;22.20;;;;;;;;;;5091149;28;20265;-81
2023/11/29 01:03:06;;;;;;;26.63;22.67;;;;;;;;;;5091287;28;20198;-81
2023/11/29 01:05:33;;;;;;;32.90;22.07;;;;;;;;;;5091149;28;20195;-81
2023/11/29 01:08:02;;;;;;;26.30;21.93;;;;;;;;;;5092210;28;20721;-81
2023/11/29 01:10:29;;;;;;;30.57;22.47;;;;;;;;;;5095135;28;20194;-81
2023/11/29 01:12:56;;;;;;;25.40;21.60;;;;;;;;;;5095004;28;20202;-81
2023/11/29 01:15:23;;;;;;;23.80;20.50;;;;;;;;;;5094991;28;20649;-80
2023/11/29 01:17:51;;;;;;;27.10;21.83;;;;;;;;;;5094897;28;20729;-81
2023/11/29 01:20:18;;;;;;;28.30;21.53;;;;;;;;;;5094895;28;20237;-81
2023/11/29 01:22:45;;;;;;;29.07;21.87;;;;;;;;;;5095047;28;20282;-81
2023/11/29 01:25:14;;;;;;;27.03;22.40;;;;;;;;;;5094749;28;20232;-81
2023/11/29 01:27:41;;;;;;;29.70;21.77;;;;;;;;;;5095408;28;20224;-81
2023/11/29 01:30:09;;;;;;;28.40;22.40;;;;;;;;;;5094261;28;20619;-80
2023/11/29 01:32:36;;;;;;;26.80;22.70;;;;;;;;;;5094916;28;20611;-81
2023/11/29 01:35:03;;;;;;;31.40;22.37;;;;;;;;;;5094259;28;20297;-81
2023/11/29 01:37:31;;;;;;;26.23;21.60;;;;;;;;;;5094311;28;20671;-80
2023/11/29 01:39:58;;;;;;;26.03;21.40;;;;;;;;;;5094317;28;20734;-80
2023/11/29 01:42:26;;;;;;;30.97;21.20;;;;;;;;;;5094601;28;20689;-82
2023/11/29 01:44:53;;;;;;;26.30;20.20;;;;;;;;;;5094575;28;20293;-80
2023/11/29 01:47:21;;;;;;;25.40;21.07;;;;;;;;;;5094432;28;20292;-80
2023/11/29 01:49:48;;;;;;;25.97;20.23;;;;;;;;;;5094092;28;20202;-80
2023/11/29 01:52:16;;;;;;;27.17;21.10;;;;;;;;;;5093727;28;20230;-81
2023/11/29 01:54:43;;;;;;;25.63;20.63;;;;;;;;;;5094619;28;20566;-81
2023/11/29 01:57:11;;;;;;;25.43;20.57;;;;;;;;;;5094197;28;20803;-81
2023/11/29 01:59:39;;;;;;;25.63;20.47;;;;;;;;;;5093587;28;20334;-80
2023/11/29 02:02:07;;;;;;;23.87;20.00;;;;;;;;;;5094173;28;20226;-80
2023/11/29 02:04:34;;;;;;;24.67;20.00;;;;;;;;;;5093732;28;20750;-81
2023/11/29 02:07:02;;;;;;;24.17;20.37;;;;;;;;;;5094169;28;20194;-81
2023/11/29 02:09:29;;;;;;;25.07;19.73;;;;;;;;;;5093827;28;20658;-81
2023/11/29 02:11:57;;;;;;;25.63;20.07;;;;;;;;;;5094263;28;20218;-80
2023/11/29 02:14:25;;;;;;;28.60;20.47;;;;;;;;;;5093529;28;20225;-80
2023/11/29 02:16:53;;;;;;;23.50;20.43;;;;;;;;;;5093648;28;20316;-80
2023/11/29 02:19:20;;;;;;;26.27;20.53;;;;;;;;;;5092724;28;20289;-81
2023/11/29 02:21:47;;;;;;;26.93;20.20;;;;;;;;;;5094005;28;20245;-81
2023/11/29 02:24:17;;;;;;;25.70;19.70;;;;;;;;;;5093743;28;20205;-81
2023/11/29 02:26:46;;;;;;;28.03;20.07;;;;;;;;;;5094025;28;20206;-82
2023/11/29 02:29:13;;;;;;;26.63;20.17;;;;;;;;;;5093122;28;20241;-81
2023/11/29 02:31:40;;;;;;;26.23;19.10;;;;;;;;;;5093269;28;20662;-81
2023/11/29 02:34:08;;;;;;;29.00;20.43;;;;;;;;;;5093405;28;20229;-80
2023/11/29 02:36:35;;;;;;;23.63;19.60;;;;;;;;;;5093022;28;20236;-81
2023/11/29 02:39:03;;;;;;;25.93;19.60;;;;;;;;;;5093263;28;20584;-80
2023/11/29 02:41:30;;;;;;;26.67;19.40;;;;;;;;;;5093888;28;20202;-80
2023/11/29 02:43:59;;;;;;;26.17;19.90;;;;;;;;;;5093159;28;20289;-80
2023/11/29 02:46:27;;;;;;;25.70;20.50;;;;;;;;;;5092808;28;20201;-81
2023/11/29 02:48:54;;;;;;;27.70;20.10;;;;;;;;;;5093603;28;20230;-80
2023/11/29 02:51:21;;;;;;;27.87;22.17;;;;;;;;;;5093056;28;20198;-80
2023/11/29 02:53:48;;;;;;;26.67;20.23;;;;;;;;;;5093502;28;20375;-81
2023/11/29 02:56:16;;;;;;;25.57;21.83;;;;;;;;;;5093073;28;20222;-81
2023/11/29 02:58:43;;;;;;;27.53;22.47;;;;;;;;;;5092804;28;20293;-81
2023/11/29 03:01:11;;;;;;;26.60;22.07;;;;;;;;;;5092505;28;20312;-81
2023/11/29 03:03:39;;;;;;;28.37;22.30;;;;;;;;;;5092922;28;20285;-80
2023/11/29 03:06:06;;;;;;;26.87;21.37;;;;;;;;;;5093206;28;20190;-81
2023/11/29 03:08:33;;;;;;;29.40;23.47;;;;;;;;;;5087479;28;20201;-79
2023/11/29 03:11:01;;;;;;;26.30;21.50;;;;;;;;;;5083614;28;20241;-80
2023/11/29 03:13:29;;;;;;;27.97;20.60;;;;;;;;;;5092876;28;20203;-81
2023/11/29 03:15:56;;;;;;;23.40;19.60;;;;;;;;;;5092848;28;20194;-80
2023/11/29 03:18:24;;;;;;;26.47;20.50;;;;;;;;;;5092703;28;20673;-80
2023/11/29 03:20:52;;;;;;;24.60;19.10;;;;;;;;;;5092638;28;20233;-79
2023/11/29 03:23:19;;;;;;;23.47;19.50;;;;;;;;;;5092701;28;20292;-80
2023/11/29 03:25:46;;;;;;;22.77;18.70;;;;;;;;;;5092081;28;20284;-80
2023/11/29 03:28:13;;;;;;;23.57;18.47;;;;;;;;;;5092339;28;20314;-80
2023/11/29 03:30:41;;;;;;;23.40;18.90;;;;;;;;;;5092179;28;20258;-80
2023/11/29 03:33:08;;;;;;;22.20;18.30;;;;;;;;;;5092752;28;20577;-80
2023/11/29 03:35:36;;;;;;;22.80;19.10;;;;;;;;;;5092205;28;20761;-80
2023/11/29 03:38:04;;;;;;;26.17;18.70;;;;;;;;;;5092282;28;20228;-80
2023/11/29 03:40:31;;;;;;;23.30;19.07;;;;;;;;;;5092350;28;20296;-80
2023/11/29 03:42:58;;;;;;;27.53;19.73;;;;;;;;;;5092222;28;20297;-80
2023/11/29 03:45:25;;;;;;;24.17;19.60;;;;;;;;;;5092303;28;20192;-80
2023/11/29 03:47:52;;;;;;;22.53;19.43;;;;;;;;;;5092273;28;20260;-79
2023/11/29 03:50:19;;;;;;;25.10;19.00;;;;;;;;;;5091856;28;20285;-81
2023/11/29 03:52:48;;;;;;;23.83;18.37;;;;;;;;;;5092246;28;20196;-80
2023/11/29 03:55:15;;;;;;;26.53;19.87;;;;;;;;;;5092238;28;20295;-80
2023/11/29 03:57:42;;;;;;;25.30;19.73;;;;;;;;;;5091935;28;20266;-80
2023/11/29 04:00:10;;;;;;;27.13;20.87;;;;;;;;;;5091612;28;20263;-80
2023/11/29 04:02:37;;;;;;;24.23;19.83;;;;;;;;;;5091819;28;20344;-80
2023/11/29 04:05:05;;;;;;;26.07;19.67;;;;;;;;;;5091663;28;20765;-79
2023/11/29 04:07:32;;;;;;;23.87;19.13;;;;;;;;;;5091901;28;20288;-79
2023/11/29 04:10:00;;;;;;;26.90;20.03;;;;;;;;;;5091567;28;20287;-81
2023/11/29 04:12:27;;;;;;;24.67;19.97;;;;;;;;;;5091573;28;20281;-81
2023/11/29 04:14:55;;;;;;;26.83;20.97;;;;;;;;;;5091687;28;20302;-80
2023/11/29 04:17:22;;;;;;;27.23;20.13;;;;;;;;;;5091681;28;20229;-80
2023/11/29 04:19:49;;;;;;;25.80;20.37;;;;;;;;;;5073659;28;20203;-80
2023/11/29 04:22:17;;;;;;;25.73;20.33;;;;;;;;;;5091804;28;20294;-80
2023/11/29 04:24:44;;;;;;;29.13;19.77;;;;;;;;;;5091074;28;20204;-80
2023/11/29 04:27:12;;;;;;;24.33;18.50;;;;;;;;;;5091569;28;20206;-79
2023/11/29 04:29:40;;;;;;;24.23;18.93;;;;;;;;;;5091420;28;20202;-80
2023/11/29 04:32:07;;;;;;;22.47;19.13;;;;;;;;;;5091964;28;20583;-80
2023/11/29 04:34:34;;;;;;;23.90;18.40;;;;;;;;;;5091302;28;20322;-80
2023/11/29 04:37:02;;;;;;;27.93;18.60;;;;;;;;;;5091318;28;20276;-80
2023/11/29 04:39:29;;;;;;;29.50;17.37;;;;;;;;;;5091272;28;20290;-80
2023/11/29 04:41:56;;;;;;;18.20;15.97;;;;;;;;;;5091133;28;20199;-79
2023/11/29 04:44:25;;;;;;;17.87;15.80;;;;;;;;;;5091266;28;20194;-78
2023/11/29 04:46:52;;;;;;;16.87;15.07;;;;;;;;;;5091467;28;20311;-80
2023/11/29 04:49:19;;;;;;;18.77;15.63;;;;;;;;;;5091144;28;20204;-80
2023/11/29 04:51:46;;;;;;;17.43;15.63;;;;;;;;;;5091286;28;20195;-80
2023/11/29 04:54:13;;;;;;;17.43;15.23;;;;;;;;;;5090776;28;20293;-80
2023/11/29 04:56:41;;;;;;;17.87;15.97;;;;;;;;;;5091140;28;20694;-80
2023/11/29 04:59:08;;;;;;;19.03;16.27;;;;;;;;;;5091078;28;20318;-80
2023/11/29 05:01:36;;;;;;;16.37;14.53;;;;;;;;;;5091199;28;20226;-81
2023/11/29 05:04:04;;;;;;;18.47;15.80;;;;;;;;;;5091353;28;20242;-80
2023/11/29 05:06:31;;;;;;;18.10;16.07;;;;;;;;;;5091089;28;20692;-79
2023/11/29 05:08:59;;;;;;;19.80;16.00;;;;;;;;;;5090928;28;20289;-80
2023/11/29 05:11:26;;;;;;;18.43;15.87;;;;;;;;;;5091091;28;20284;-79
2023/11/29 05:13:53;;;;;;;17.63;15.30;;;;;;;;;;5091070;28;20278;-80
2023/11/29 05:16:20;;;;;;;18.90;15.57;;;;;;;;;;5091558;28;20281;-80
2023/11/29 05:18:49;;;;;;;17.20;14.80;;;;;;;;;;5090669;28;20718;-79
2023/11/29 05:21:17;;;;;;;19.37;15.27;;;;;;;;;;5091130;28;20282;-79
2023/11/29 05:23:44;;;;;;;18.83;15.53;;;;;;;;;;5090813;28;20199;-81
2023/11/29 05:26:11;;;;;;;17.73;15.63;;;;;;;;;;5090751;28;20195;-80
2023/11/29 05:28:38;;;;;;;21.53;16.67;;;;;;;;;;5091348;28;20277;-80
2023/11/29 05:31:05;;;;;;;18.20;15.47;;;;;;;;;;5090822;28;20645;-80
2023/11/29 05:33:33;;;;;;;19.13;15.83;;;;;;;;;;5091090;28;20303;-79
2023/11/29 05:36:01;;;;;;;19.67;16.27;;;;;;;;;;5090629;28;20631;-80
2023/11/29 05:38:28;;;;;;;26.07;15.63;;;;;;;;;;5090711;28;20226;-79
2023/11/29 05:40:57;;;;;;;35.90;15.87;;;;;;;;;;5090773;28;20290;-80
2023/11/29 05:43:24;;;;;;;17.47;14.27;;;;;;;;;;5091185;28;20210;-80
2023/11/29 05:45:52;;;;;;;17.23;14.33;;;;;;;;;;5090689;28;20199;-79
2023/11/29 05:48:19;;;;;;;17.47;14.60;;;;;;;;;;5090663;28;20282;-80
2023/11/29 05:50:46;;;;;;;16.00;13.47;;;;;;;;;;5090543;28;20284;-81
2023/11/29 05:53:17;;;;;;;17.83;13.47;;;;;;;;;;5090777;28;20284;-79
2023/11/29 05:55:44;;;;;;;33.83;14.77;;;;;;;;;;5092463;28;20283;-80
2023/11/29 05:58:12;;;;;;;20.83;15.00;;;;;;;;;;5093948;28;20313;-80
2023/11/29 06:00:39;;;;;;;17.73;14.30;;;;;;;;;;5094012;28;20262;-80
2023/11/29 06:03:07;;;;;;;16.77;13.87;;;;;;;;;;5093887;28;20194;-80
2023/11/29 06:05:34;;;;;;;16.80;14.10;;;;;;;;;;5093126;28;20285;-80
2023/11/29 06:08:02;;;;;;;20.73;14.50;;;;;;;;;;5094166;28;20199;-81
2023/11/29 06:10:30;;;;;;;16.53;13.83;;;;;;;;;;5094073;28;20195;-80
2023/11/29 06:12:58;;;;;;;16.70;14.00;;;;;;;;;;5093212;28;20285;-80
2023/11/29 06:15:25;;;;;;;17.97;14.57;;;;;;;;;;5094195;28;20284;-79
2023/11/29 06:17:52;;;;;;;17.27;14.07;;;;;;;;;;5093560;28;20652;-80
2023/11/29 06:20:21;;;;;;;16.17;13.70;;;;;;;;;;5093291;28;20201;-79
2023/11/29 06:22:48;;;;;;;16.57;13.37;;;;;;;;;;5093346;28;20199;-79
2023/11/29 06:25:15;;;;;;;15.90;13.03;;;;;;;;;;5093501;28;20238;-80
2023/11/29 06:27:45;;;;;;;16.17;13.53;;;;;;;;;;5094031;28;20237;-80
2023/11/29 06:30:13;;;;;;;18.87;15.20;;;;;;;;;;5093711;28;20205;-79
2023/11/29 06:32:41;;;;;;;18.27;14.97;;;;;;;;;;5093712;28;20221;-79
2023/11/29 06:35:11;;;;;;;16.73;13.93;;;;;;;;;;5092894;28;20620;-78
2023/11/29 06:37:38;;;;;;;15.43;13.13;;;;;;;;;;5093752;28;20252;-80
2023/11/29 06:40:10;;;;;;;18.77;14.30;;;;;;;;;;5091008;28;20218;-79
2023/11/29 06:42:38;;;;;;;17.40;13.33;;;;;;;;;;5089444;28;20244;-80
2023/11/29 06:45:07;;;;;;;19.40;14.80;;;;;;;;;;5090610;28;20199;-79
2023/11/29 06:47:34;;;;;;;22.03;16.60;;;;;;;;;;5093293;28;20293;-79
2023/11/29 06:50:04;;;;;;;21.17;17.03;;;;;;;;;;5090094;28;20207;-79
2023/11/29 06:52:31;;;;;;;19.93;16.20;;;;;;;;;;5087585;28;20638;-80
2023/11/29 06:54:58;;;;;;;21.40;17.17;;;;;;;;;;5091865;28;20554;-81
2023/11/29 06:57:25;;;;;;;21.23;16.80;;;;;;;;;;5093146;28;20288;-80
2023/11/29 06:59:53;;;;;;;22.57;18.23;;;;;;;;;;5092601;28;20234;-80
2023/11/29 07:02:21;;;;;;;21.83;18.33;;;;;;;;;;5092580;28;20289;-81
2023/11/29 07:04:48;;;;;;;21.63;18.33;;;;;;;;;;5092548;28;20285;-80
2023/11/29 07:07:17;;;;;;;24.67;18.37;;;;;;;;;;5092739;28;20194;-80
2023/11/29 07:09:45;;;;;;;24.07;19.00;;;;;;;;;;5092739;28;20194;-81
2023/11/29 07:12:12;;;;;;;21.53;17.40;;;;;;;;;;5093054;28;20199;-79
2023/11/29 07:14:39;;;;;;;20.27;16.57;;;;;;;;;;5093163;28;20271;-80
2023/11/29 07:17:06;;;;;;;21.40;16.63;;;;;;;;;;5092384;28;20225;-81
2023/11/29 07:19:35;;;;;;;19.83;16.57;;;;;;;;;;5092298;28;20324;-80
2023/11/29 07:22:03;;;;;;;19.23;16.23;;;;;;;;;;5093050;28;20202;-80
2023/11/29 07:24:30;;;;;;;19.77;16.37;;;;;;;;;;5092800;28;20197;-81
2023/11/29 07:26:57;;;;;;;21.33;17.13;;;;;;;;;;5092814;28;20226;-80
2023/11/29 07:29:25;;;;;;;19.10;16.67;;;;;;;;;;5092604;28;20202;-80
2023/11/29 07:31:54;;;;;;;18.83;15.63;;;;;;;;;;5092837;28;20240;-80
2023/11/29 07:34:21;;;;;;;19.63;15.30;;;;;;;;;;5092233;28;20221;-80
2023/11/29 07:36:51;;;;;;;17.33;14.33;;;;;;;;;;5092252;28;20240;-80
2023/11/29 07:39:19;;;;;;;19.13;15.30;;;;;;;;;;5092489;28;20586;-80
2023/11/29 07:41:47;;;;;;;19.83;16.13;;;;;;;;;;5092427;28;20206;-80
2023/11/29 07:44:14;;;;;;;21.37;16.40;;;;;;;;;;5092204;28;20259;-80
2023/11/29 07:46:42;;;;;;;19.20;16.67;;;;;;;;;;5092357;28;20837;-80
2023/11/29 07:49:12;;;;;;;21.50;17.40;;;;;;;;;;5092162;28;20258;-80
2023/11/29 07:51:39;;;;;;;21.50;17.53;;;;;;;;;;5091984;28;20656;-80
2023/11/29 07:54:08;;;;;;;21.37;17.73;;;;;;;;;;5092404;28;20230;-81
2023/11/29 07:56:35;;;;;;;24.00;19.20;;;;;;;;;;5092452;28;20197;-80
2023/11/29 07:59:02;;;;;;;24.87;18.43;;;;;;;;;;5092157;28;20337;-80
2023/11/29 08:01:30;;;;;;;23.37;18.63;;;;;;;;;;5091447;28;20317;-80
2023/11/29 08:03:57;;;;;;;23.10;17.93;;;;;;;;;;5092189;28;20206;-81
2023/11/29 08:06:24;;;;;;;21.93;17.30;;;;;;;;;;5092186;28;20240;-80
2023/11/29 08:08:51;;;;;;;23.30;19.13;;;;;;;;;;5091785;28;20278;-81
2023/11/29 08:11:21;;;;;;;25.97;20.57;;;;;;;;;;5091861;28;20639;-80
2023/11/29 08:13:48;;;;;;;26.10;20.70;;;;;;;;;;5092158;28;20214;-80
2023/11/29 08:16:15;;;;;;;24.37;19.97;;;;;;;;;;5091794;28;20208;-80
2023/11/29 08:18:42;;;;;;;22.77;18.77;;;;;;;;;;5091160;28;20229;-80
2023/11/29 08:21:09;;;;;;;24.80;19.67;;;;;;;;;;5091399;28;20240;-80
2023/11/29 08:23:37;;;;;;;24.87;19.13;;;;;;;;;;5091478;28;20857;-81
2023/11/29 08:26:04;;;;;;;26.43;19.77;;;;;;;;;;5091687;28;20290;-80
2023/11/29 08:28:33;;;;;;;17.97;15.20;;;;;;;;;;5091374;28;20295;-80
2023/11/29 08:31:00;;;;;;;16.93;13.67;;;;;;;;;;5091449;28;20281;-80
2023/11/29 08:33:29;;;;;;;16.30;13.93;;;;;;;;;;5091812;28;20660;-80
2023/11/29 08:35:57;;;;;;;19.17;14.80;;;;;;;;;;5091314;28;20202;-80
2023/11/29 08:38:25;;;;;;;17.77;15.07;;;;;;;;;;5091043;28;20756;-80
2023/11/29 08:40:52;;;;;;;17.37;15.50;;;;;;;;;;5091399;28;20204;-81
2023/11/29 08:43:20;;;;;;;19.17;15.77;;;;;;;;;;5091342;28;20655;-80
2023/11/29 08:45:49;;;;;;;18.43;14.90;;;;;;;;;;5090922;28;20661;-80
2023/11/29 08:48:16;;;;;;;18.23;15.67;;;;;;;;;;5091351;28;20547;-81
2023/11/29 08:50:43;;;;;;;18.40;14.53;;;;;;;;;;5091595;28;20283;-80
2023/11/29 08:53:10;;;;;;;19.33;15.23;;;;;;;;;;5091358;28;20613;-80
2023/11/29 08:55:42;;;;;;;18.77;14.60;;;;;;;;;;5091206;28;20276;-80
2023/11/29 08:58:09;;;;;;;18.67;15.23;;;;;;;;;;5091460;28;20198;-80
2023/11/29 09:00:36;;;;;;;17.30;14.57;;;;;;;;;;5090654;28;20250;-80
2023/11/29 09:03:06;;;;;;;18.27;14.33;;;;;;;;;;5091201;28;20663;-81
2023/11/29 09:05:33;;;;;;;16.80;13.77;;;;;;;;;;5091012;28;20239;-81
2023/11/29 09:08:00;;;;;;;15.17;12.93;;;;;;;;;;5091369;28;20273;-80
2023/11/29 09:10:27;;;;;;;15.67;12.67;;;;;;;;;;5091141;28;20287;-81
2023/11/29 09:12:55;;;;;;;13.60;11.90;;;;;;;;;;5090926;28;20668;-81
2023/11/29 09:15:22;;;;;;;16.87;12.67;;;;;;;;;;5091002;28;20198;-81
2023/11/29 09:17:50;;;;;;;15.90;12.30;;;;;;;;;;5091135;28;20751;-81
2023/11/29 09:20:18;;;;;;;15.20;12.07;;;;;;;;;;5090869;28;20660;-81
2023/11/29 09:22:46;;;;;;;16.83;12.70;;;;;;;;;;5091302;28;20206;-81
2023/11/29 09:25:13;;;;;;;14.20;11.40;;;;;;;;;;5090913;28;20655;-81
2023/11/29 09:27:40;;;;;;;17.83;11.37;;;;;;;;;;5091141;28;20280;-81
2023/11/29 09:30:08;;;;;;;15.23;11.30;;;;;;;;;;5093539;28;20243;-82
2023/11/29 09:32:36;;;;;;;13.43;10.67;;;;;;;;;;5095177;28;20244;-81
2023/11/29 09:35:04;;;;;;;15.23;10.93;;;;;;;;;;5094857;28;20242;-81
2023/11/29 09:37:32;;;;;;;14.30;11.20;;;;;;;;;;5095046;28;20614;-78
2023/11/29 09:40:00;;;;;;;13.80;10.93;;;;;;;;;;5094598;28;20265;-80
2023/11/29 09:42:28;;;;;;;12.83;10.50;;;;;;;;;;5094768;28;20281;-81
2023/11/29 09:44:56;;;;;;;15.37;10.67;;;;;;;;;;5094608;28;20283;-81
2023/11/29 09:47:26;;;;;;;10.57;9.50;;;;;;;;;;5094424;28;20198;-81
2023/11/29 09:49:54;;;;;;;15.57;9.53;;;;;;;;;;5094577;28;20195;-81
2023/11/29 09:52:22;;;;;;;14.27;9.83;;;;;;;;;;5094571;28;20671;-81
2023/11/29 09:54:50;;;;;;;12.70;9.33;;;;;;;;;;5094725;28;20197;-81
2023/11/29 09:57:18;;;;;;;12.60;9.50;;;;;;;;;;5094711;28;20582;-81
2023/11/29 09:59:45;;;;;;;10.77;9.17;;;;;;;;;;5094059;28;20265;-81
2023/11/29 10:02:13;;;;;;;13.47;9.33;;;;;;;;;;5094251;28;20314;-81
2023/11/29 10:04:40;;;;;;;11.73;9.63;;;;;;;;;;5094502;28;20205;-81
2023/11/29 10:07:07;;;;;;;11.73;9.80;;;;;;;;;;5094430;28;20342;-81
2023/11/29 10:09:38;;;;;;;14.30;10.50;;;;;;;;;;5093962;28;20240;-81
2023/11/29 10:12:08;;;;;;;12.80;10.40;;;;;;;;;;5094073;28;20195;-81
2023/11/29 10:14:39;;;;;;;12.03;10.10;;;;;;;;;;5093956;28;20573;-81
2023/11/29 10:17:07;;;;;;;10.90;8.97;;;;;;;;;;5094163;28;20195;-81
2023/11/29 10:19:34;;;;;;;11.23;8.97;;;;;;;;;;5093850;28;20222;-82
2023/11/29 10:22:02;;;;;;;9.03;8.10;;;;;;;;;;5094130;28;20812;-79
2023/11/29 10:24:30;;;;;;;12.03;8.87;;;;;;;;;;5094195;28;20199;-82
2023/11/29 10:26:58;;;;;;;11.67;9.17;;;;;;;;;;5093904;28;20201;-82
2023/11/29 10:29:27;;;;;;;11.27;10.00;;;;;;;;;;5094225;28;20194;-82
2023/11/29 10:31:55;;;;;;;13.10;9.40;;;;;;;;;;5093751;28;20320;-80
2023/11/29 10:34:23;;;;;;;10.60;9.40;;;;;;;;;;5093943;28;20252;-82
2023/11/29 10:36:50;;;;;;;11.83;9.87;;;;;;;;;;5093852;28;20198;-81
2023/11/29 10:39:21;;;;;;;12.07;9.40;;;;;;;;;;5094061;28;20336;-79
2023/11/29 10:41:49;;;;;;;11.03;9.10;;;;;;;;;;5092555;28;20646;-80
2023/11/29 10:44:18;;;;;;;9.97;8.70;;;;;;;;;;5093841;28;20273;-80
2023/11/29 10:46:47;;;;;;;11.83;9.27;;;;;;;;;;5093587;28;20730;-82
2023/11/29 10:49:16;;;;;;;11.47;9.57;;;;;;;;;;5093641;28;20233;-81
2023/11/29 10:51:45;;;;;;;10.90;9.70;;;;;;;;;;5093943;28;20281;-81
2023/11/29 10:54:13;;;;;;;13.90;9.60;;;;;;;;;;5093102;28;20199;-81
2023/11/29 10:56:42;;;;;;;9.50;8.50;;;;;;;;;;5093514;28;20202;-81
2023/11/29 10:59:14;;;;;;;10.70;9.47;;;;;;;;;;5093239;28;20218;-81
2023/11/29 11:01:43;;;;;;;11.03;9.37;;;;;;;;;;5093233;28;20655;-80
2023/11/29 11:04:12;;;;;;;10.93;8.90;;;;;;;;;;5093186;28;20576;-81
2023/11/29 11:06:42;;;;;;;11.90;8.50;;;;;;;;;;5092696;28;20281;-81
2023/11/29 11:09:28;;;;;;;8.97;7.97;;;;;;;;;;5093283;28;20293;-82
2023/11/29 11:11:57;;;;;;;8.90;8.00;;;;;;;;;;5093074;28;20201;-80
2023/11/29 11:14:29;;;;;;;10.07;8.23;;;;;;;;;;5093223;28;20232;-81
2023/11/29 11:17:00;;;;;;;10.37;8.77;;;;;;;;;;5093316;28;20572;-81
2023/11/29 11:19:35;;;;;;;13.43;8.13;;;;;;;;;;5074860;28;20328;-81
2023/11/29 11:22:04;;;;;;;11.83;8.73;;;;;;;;;;5093086;28;20194;-81
2023/11/29 11:24:49;;;;;;;9.10;8.10;;;;;;;;;;5092312;28;20206;-81
2023/11/29 11:27:17;;;;;;;11.20;7.37;;;;;;;;;;5092764;28;20281;-82
2023/11/29 11:29:44;;;;;;;9.87;8.00;;;;;;;;;;5092841;28;20397;-81
2023/11/29 11:32:12;;;;;;;9.80;7.37;;;;;;;;;;5092872;28;20298;-81
2023/11/29 11:34:40;;;;;;;9.40;7.23;;;;;;;;;;5092538;28;20229;-80
2023/11/29 11:37:09;;;;;;;10.23;6.97;;;;;;;;;;5074559;28;20191;-82
2023/11/29 11:39:37;;;;;;;10.97;6.47;;;;;;;;;;5091899;28;20298;-81
2023/11/29 11:42:05;;;;;;;10.97;6.97;;;;;;;;;;5092682;28;20288;-81
2023/11/29 11:44:32;;;;;;;7.43;6.73;;;;;;;;;;5092376;28;20277;-82
2023/11/29 11:46:59;;;;;;;10.93;6.77;;;;;;;;;;5092279;28;20205;-82
2023/11/29 11:49:27;;;;;;;8.80;6.70;;;;;;;;;;5092207;28;20217;-81
2023/11/29 11:51:56;;;;;;;9.07;6.37;;;;;;;;;;5092662;28;20256;-81
2023/11/29 11:54:23;;;;;;;11.53;7.03;;;;;;;;;;5092147;28;20305;-81
2023/11/29 11:56:50;;;;;;;7.63;6.10;;;;;;;;;;5092264;28;20625;-81
2023/11/29 11:59:17;;;;;;;8.80;6.60;;;;;;;;;;5092139;28;20659;-81
2023/11/29 12:01:45;;;;;;;9.07;6.70;;;;;;;;;;5074178;28;20347;-82
2023/11/29 12:04:12;;;;;;;8.83;6.10;;;;;;;;;;5090424;28;20237;-80
2023/11/29 12:06:39;;;;;;;7.27;5.50;;;;;;;;;;5089222;28;20201;-81
2023/11/29 12:09:11;;;;;;;8.07;6.23;;;;;;;;;;5075668;28;20191;-81
2023/11/29 12:11:39;;;;;;;8.27;5.60;;;;;;;;;;5081094;28;20315;-82
2023/11/29 12:14:06;;;;;;;8.03;5.90;;;;;;;;;;5090146;28;20225;-82
2023/11/29 12:16:33;;;;;;;7.53;6.00;;;;;;;;;;4736128;28;10000243;-80
2023/11/29 12:19:01;;;;;;;6.77;5.73;;;;;;;;;;5088510;28;20213;-81
2023/11/29 12:21:30;;;;;;;7.43;6.03;;;;;;;;;;5088182;28;20762;-79
2023/11/29 12:24:04;;;;;;;9.53;5.90;;;;;;;;;;5087607;28;20193;-80
2023/11/29 12:26:32;;;;;;;7.73;5.30;;;;;;;;;;5088125;28;20201;-80
2023/11/29 12:29:01;;;;;;;6.97;5.57;;;;;;;;;;5086721;28;20328;-80
2023/11/29 12:31:28;;;;;;;7.53;5.73;;;;;;;;;;5087146;28;20927;-81
2023/11/29 12:33:56;;;;;;;8.77;5.90;;;;;;;;;;5087553;28;20206;-81
2023/11/29 12:36:23;;;;;;;6.20;5.07;;;;;;;;;;5088062;28;20293;-80
2023/11/29 12:38:51;;;;;;;6.37;4.97;;;;;;;;;;5086517;28;20202;-79
2023/11/29 12:41:18;;;;;;;6.73;4.93;;;;;;;;;;5087035;28;20241;-80
2023/11/29 12:43:47;;;;;;;8.27;5.40;;;;;;;;;;5087847;28;20778;-80
2023/11/29 12:46:14;;;;;;;7.10;4.90;;;;;;;;;;5086840;28;20628;-79
2023/11/29 12:48:41;;;;;;;6.17;4.73;;;;;;;;;;5087581;28;20238;-80
2023/11/29 12:51:13;;;;;;;7.60;4.80;;;;;;;;;;5088429;28;20238;-80
2023/11/29 12:53:41;;;;;;;5.10;4.37;;;;;;;;;;5085952;28;20276;-79
2023/11/29 12:56:08;;;;;;;6.33;4.87;;;;;;;;;;5091625;28;20293;-79
2023/11/29 12:58:36;;;;;;;6.33;4.60;;;;;;;;;;5082786;28;20607;-79
2023/11/29 13:01:04;;;;;;;6.27;4.47;;;;;;;;;;5075477;28;20663;-79
2023/11/29 13:03:31;;;;;;;6.03;4.67;;;;;;;;;;5085706;28;20293;-79
2023/11/29 13:05:58;;;;;;;6.03;4.30;;;;;;;;;;5094989;28;20198;-78
2023/11/29 13:08:26;;;;;;;5.17;3.83;;;;;;;;;;5095069;28;20199;-79
2023/11/29 13:10:55;;;;;;;6.17;3.80;;;;;;;;;;5075114;28;20282;-81
2023/11/29 13:13:23;;;;;;;4.57;3.40;;;;;;;;;;5082654;28;20674;-79
2023/11/29 13:15:50;;;;;;;4.47;3.33;;;;;;;;;;5094972;28;20759;-79
2023/11/29 13:18:19;;;;;;;5.40;3.03;;;;;;;;;;5095128;28;20757;-78
2023/11/29 13:20:46;;;;;;;4.20;2.90;;;;;;;;;;5093916;28;20309;-80
2023/11/29 13:23:13;;;;;;;4.13;3.07;;;;;;;;;;5093901;28;20229;-80
2023/11/29 13:25:41;;;;;;;4.80;2.90;;;;;;;;;;5094023;28;20286;-79
2023/11/29 13:28:08;;;;;;;3.60;2.57;;;;;;;;;;5094009;28;20204;-78
2023/11/29 13:30:35;;;;;;;3.30;2.70;;;;;;;;;;5093158;28;20297;-78
2023/11/29 13:33:02;;;;;;;4.27;2.50;;;;;;;;;;5095158;28;20244;-80
2023/11/29 13:35:31;;;;;;;4.27;2.93;;;;;;;;;;5094613;28;20285;-79
2023/11/29 13:37:58;;;;;;;4.93;2.77;;;;;;;;;;5095290;28;20198;-80
2023/11/29 13:40:25;;;;;;;5.37;3.10;;;;;;;;;;5092452;28;20317;-79
2023/11/29 13:42:52;;;;;;;3.63;3.00;;;;;;;;;;5095045;28;20190;-79
2023/11/29 13:45:19;;;;;;;6.10;3.50;;;;;;;;;;5093843;28;20293;-79
2023/11/29 13:47:46;;;;;;;6.43;3.40;;;;;;;;;;5091941;28;20285;-79
2023/11/29 13:50:14;;;;;;;3.80;3.03;;;;;;;;;;5094230;28;20343;-79
2023/11/29 13:52:42;;;;;;;4.93;3.17;;;;;;;;;;5093043;28;20201;-78
2023/11/29 13:55:10;;;;;;;5.60;3.30;;;;;;;;;;5093450;28;20289;-79
2023/11/29 13:57:37;;;;;;;4.83;3.33;;;;;;;;;;5091255;28;20198;-79
2023/11/29 14:00:05;;;;;;;4.40;3.70;;;;;;;;;;5094585;28;20791;-79
2023/11/29 14:02:33;;;;;;;4.80;3.57;;;;;;;;;;5093486;28;20592;-79
2023/11/29 14:05:00;;;;;;;6.27;4.27;;;;;;;;;;5092742;28;20610;-78
2023/11/29 14:07:27;;;;;;;7.37;4.20;;;;;;;;;;5092609;28;20282;-79
2023/11/29 14:09:55;;;;;;;7.87;4.20;;;;;;;;;;5090113;28;20670;-79
2023/11/29 14:12:23;;;;;;;8.37;4.37;;;;;;;;;;5091639;28;20197;-78
2023/11/29 14:14:51;;;;;;;7.20;5.00;;;;;;;;;;5092874;28;20307;-79
2023/11/29 14:17:19;;;;;;;6.33;4.97;;;;;;;;;;5088524;28;20201;-78
2023/11/29 14:19:46;;;;;;;8.13;5.10;;;;;;;;;;5089066;28;20330;-79
2023/11/29 14:22:14;;;;;;;7.90;5.10;;;;;;;;;;5093323;28;20305;-79
2023/11/29 14:24:41;;;;;;;5.73;4.93;;;;;;;;;;5093670;28;20202;-79
2023/11/29 14:27:10;;;;;;;7.03;4.93;;;;;;;;;;5093263;28;20583;-78